ALK185 VCBI-VRMM
Flight info
| Callsign | ALK185 |
|---|---|
| Flight time | N/A |
| Altitude | 38000 |
| Route | LALUM1D TELIG M512 HOKEY HOKEY1B |
| Aircraft | A333/H-SDE3GHIJ2J3J5M1RVWXY/LB2D1 |
Departure
| Time | 2026-05-04 07:04 |
|---|---|
| Airport | Bandaranaike International Colombo Airport (VCBI) |
Arrival
| Time | N/A |
|---|---|
| Airport | Velana International Airport (VRMM) |
| Time | Latitude | Longitude | Altitude | Speed | Heading |
|---|---|---|---|---|---|
| 2026-05-04 06:50 | 7.17756 | 79.88462 | 38 ft | 0 kts | 212° |
| 2026-05-04 06:54 | 7.17761 | 79.88465 | 38 ft | 4 kts | 212° |
| 2026-05-04 06:54 | 7.17764 | 79.88467 | 38 ft | 0 kts | 213° |
| 2026-05-04 06:57 | 7.17795 | 79.88528 | 35 ft | 5 kts | 307° |
| 2026-05-04 06:59 | 7.17803 | 79.88518 | 38 ft | 6 kts | 308° |
| 2026-05-04 07:01 | 7.18719 | 79.89078 | 39 ft | 32 kts | 42° |
| 2026-05-04 07:01 | 7.18888 | 79.89210 | 39 ft | 28 kts | 43° |
| 2026-05-04 07:02 | 7.19030 | 79.89323 | 39 ft | 24 kts | 37° |
| 2026-05-04 07:02 | 7.19150 | 79.89406 | 39 ft | 20 kts | 19° |
| 2026-05-04 07:02 | 7.19267 | 79.89344 | 39 ft | 21 kts | 301° |
| 2026-05-04 07:02 | 7.19223 | 79.89231 | 40 ft | 18 kts | 220° |
| 2026-05-04 07:03 | 7.19198 | 79.89210 | 40 ft | 2 kts | 217° |
| 2026-05-04 07:03 | 7.19110 | 79.89143 | 40 ft | 48 kts | 217° |
| 2026-05-04 07:03 | 7.18583 | 79.88741 | 40 ft | 139 kts | 217° |
| 2026-05-04 07:03 | 7.17637 | 79.88019 | 420 ft | 201 kts | 218° |
| 2026-05-04 07:04 | 7.16477 | 79.87078 | 1592 ft | 226 kts | 218° |
| 2026-05-04 07:04 | 7.15148 | 79.86055 | 2642 ft | 247 kts | 217° |
| 2026-05-04 07:04 | 7.13754 | 79.85005 | 3485 ft | 253 kts | 217° |
| 2026-05-04 07:04 | 7.12325 | 79.83925 | 4336 ft | 259 kts | 217° |
| 2026-05-04 07:05 | 7.10879 | 79.82825 | 5264 ft | 262 kts | 218° |
| 2026-05-04 07:05 | 7.09407 | 79.81701 | 6142 ft | 269 kts | 218° |
| 2026-05-04 07:05 | 7.07906 | 79.80551 | 7010 ft | 273 kts | 217° |
| 2026-05-04 07:05 | 7.06375 | 79.79376 | 7827 ft | 281 kts | 217° |
| 2026-05-04 07:06 | 7.03187 | 79.76930 | 9603 ft | 295 kts | 217° |
| 2026-05-04 07:06 | 7.01554 | 79.75676 | 10367 ft | 305 kts | 216° |
| 2026-05-04 07:06 | 6.99801 | 79.74332 | 10763 ft | 328 kts | 216° |
| 2026-05-04 07:07 | 6.97935 | 79.72902 | 11340 ft | 342 kts | 216° |
| 2026-05-04 07:08 | 6.85076 | 79.61370 | 17039 ft | 367 kts | 234° |
| 2026-05-04 07:09 | 6.83569 | 79.59326 | 17823 ft | 370 kts | 231° |
| 2026-05-04 07:09 | 6.81988 | 79.57269 | 18506 ft | 374 kts | 231° |
| 2026-05-04 07:09 | 6.80372 | 79.55194 | 19088 ft | 379 kts | 231° |
| 2026-05-04 07:09 | 6.78727 | 79.53093 | 19687 ft | 384 kts | 231° |
| 2026-05-04 07:10 | 6.77065 | 79.50976 | 20309 ft | 387 kts | 231° |
| 2026-05-04 07:10 | 6.75385 | 79.48837 | 20892 ft | 391 kts | 231° |
| 2026-05-04 07:12 | 6.63131 | 79.33269 | 24674 ft | 418 kts | 231° |
| 2026-05-04 07:12 | 6.61316 | 79.30964 | 25129 ft | 421 kts | 231° |
| 2026-05-04 07:12 | 6.59495 | 79.28652 | 25613 ft | 423 kts | 231° |
| 2026-05-04 07:12 | 6.57661 | 79.26324 | 26079 ft | 425 kts | 230° |
| 2026-05-04 07:13 | 6.56441 | 79.24775 | 26362 ft | 428 kts | 231° |
| 2026-05-04 07:13 | 6.54585 | 79.22420 | 26810 ft | 430 kts | 231° |
| 2026-05-04 07:13 | 6.52721 | 79.20054 | 27272 ft | 432 kts | 230° |
| 2026-05-04 07:14 | 6.45143 | 79.10443 | 28975 ft | 443 kts | 231° |
| 2026-05-04 07:14 | 6.43220 | 79.08004 | 29354 ft | 447 kts | 230° |
| 2026-05-04 07:15 | 6.41302 | 79.05572 | 29796 ft | 448 kts | 230° |
| 2026-05-04 07:15 | 6.39369 | 79.03122 | 30284 ft | 447 kts | 231° |
| 2026-05-04 07:15 | 6.37429 | 79.00664 | 30588 ft | 451 kts | 230° |
| 2026-05-04 07:15 | 6.35469 | 78.98180 | 30902 ft | 453 kts | 230° |
| 2026-05-04 07:16 | 6.33499 | 78.95683 | 31160 ft | 458 kts | 229° |
| 2026-05-04 07:16 | 6.31501 | 78.93153 | 31381 ft | 463 kts | 230° |
| 2026-05-04 07:16 | 6.29547 | 78.90626 | 31738 ft | 465 kts | 232° |
| 2026-05-04 07:16 | 6.27849 | 78.87857 | 32189 ft | 466 kts | 240° |
| 2026-05-04 07:17 | 6.26426 | 78.84928 | 32691 ft | 465 kts | 243° |
| 2026-05-04 07:17 | 6.25071 | 78.81984 | 33161 ft | 463 kts | 243° |
| 2026-05-04 07:17 | 6.23726 | 78.79046 | 33629 ft | 462 kts | 243° |
| 2026-05-04 07:17 | 6.22384 | 78.76116 | 34062 ft | 461 kts | 243° |
| 2026-05-04 07:18 | 6.21042 | 78.73192 | 34481 ft | 460 kts | 243° |
| 2026-05-04 07:18 | 6.19704 | 78.70271 | 34898 ft | 458 kts | 243° |
| 2026-05-04 07:18 | 6.18369 | 78.67364 | 35314 ft | 457 kts | 243° |
| 2026-05-04 07:18 | 6.17038 | 78.64470 | 35759 ft | 454 kts | 243° |
| 2026-05-04 07:19 | 6.15713 | 78.61594 | 36204 ft | 452 kts | 244° |
| 2026-05-04 07:19 | 6.14353 | 78.58754 | 36579 ft | 450 kts | 239° |
| 2026-05-04 07:19 | 6.12712 | 78.56133 | 36977 ft | 447 kts | 231° |
| 2026-05-04 07:19 | 6.10829 | 78.53665 | 37387 ft | 444 kts | 230° |
| 2026-05-04 07:20 | 6.08902 | 78.51237 | 37750 ft | 443 kts | 229° |
| 2026-05-04 07:20 | 6.06961 | 78.48804 | 37892 ft | 448 kts | 229° |
| 2026-05-04 07:20 | 6.02993 | 78.43825 | 37897 ft | 463 kts | 230° |
| 2026-05-04 07:22 | 5.88400 | 78.25457 | 37894 ft | 487 kts | 230° |
| 2026-05-04 07:22 | 5.86279 | 78.22789 | 37901 ft | 489 kts | 230° |
| 2026-05-04 07:23 | 5.82047 | 78.17463 | 37901 ft | 486 kts | 230° |
| 2026-05-04 07:23 | 5.77814 | 78.12139 | 37899 ft | 485 kts | 230° |
| 2026-05-04 07:24 | 5.73608 | 78.06852 | 37906 ft | 487 kts | 230° |
| 2026-05-04 07:24 | 5.69451 | 78.01474 | 37901 ft | 490 kts | 236° |
| 2026-05-04 07:26 | 5.60613 | 77.75182 | 37910 ft | 501 kts | 252° |
| 2026-05-04 07:27 | 5.58591 | 77.68534 | 37905 ft | 501 kts | 251° |
| 2026-05-04 07:27 | 5.56546 | 77.61818 | 37911 ft | 503 kts | 252° |
| 2026-05-04 07:28 | 5.54490 | 77.55068 | 37908 ft | 507 kts | 252° |
| 2026-05-04 07:28 | 5.52439 | 77.48338 | 37909 ft | 509 kts | 252° |
| 2026-05-04 07:29 | 5.50377 | 77.41575 | 37910 ft | 507 kts | 252° |
| 2026-05-04 07:29 | 5.48310 | 77.34802 | 37911 ft | 506 kts | 252° |
| 2026-05-04 07:30 | 5.46247 | 77.28042 | 37915 ft | 509 kts | 252° |
| 2026-05-04 07:30 | 5.44179 | 77.21270 | 37917 ft | 505 kts | 251° |
| 2026-05-04 07:31 | 5.42132 | 77.14568 | 37910 ft | 503 kts | 252° |
| 2026-05-04 07:33 | 5.33894 | 76.87630 | 37908 ft | 505 kts | 252° |
| 2026-05-04 07:33 | 5.31858 | 76.80978 | 37909 ft | 502 kts | 252° |
| 2026-05-04 07:34 | 5.29809 | 76.74288 | 37914 ft | 501 kts | 251° |
| 2026-05-04 07:34 | 5.27759 | 76.67596 | 37916 ft | 501 kts | 252° |
| 2026-05-04 07:35 | 5.25710 | 76.60909 | 37912 ft | 502 kts | 251° |
| 2026-05-04 07:35 | 5.23657 | 76.54216 | 37913 ft | 501 kts | 252° |
| 2026-05-04 07:36 | 5.21620 | 76.47576 | 37911 ft | 498 kts | 252° |
| 2026-05-04 07:38 | 5.13457 | 76.21048 | 37914 ft | 497 kts | 251° |
| 2026-05-04 07:38 | 5.11419 | 76.14421 | 37913 ft | 497 kts | 251° |
| 2026-05-04 07:39 | 5.09372 | 76.07760 | 37913 ft | 505 kts | 252° |
| 2026-05-04 07:39 | 5.07296 | 76.01001 | 37907 ft | 506 kts | 252° |
| 2026-05-04 07:40 | 5.05239 | 75.94306 | 37913 ft | 507 kts | 251° |
| 2026-05-04 07:40 | 5.03151 | 75.87515 | 37905 ft | 505 kts | 252° |
| 2026-05-04 07:41 | 5.01073 | 75.80757 | 37904 ft | 506 kts | 252° |
| 2026-05-04 07:41 | 4.99007 | 75.74033 | 37906 ft | 504 kts | 252° |
| 2026-05-04 07:42 | 4.96966 | 75.67371 | 37906 ft | 503 kts | 252° |
| 2026-05-04 07:42 | 4.94904 | 75.60663 | 37910 ft | 502 kts | 252° |
| 2026-05-04 07:43 | 4.92840 | 75.53956 | 37907 ft | 503 kts | 252° |
| 2026-05-04 07:43 | 4.90776 | 75.47259 | 37904 ft | 502 kts | 252° |
| 2026-05-04 07:44 | 4.88706 | 75.40544 | 37912 ft | 506 kts | 252° |
| 2026-05-04 07:44 | 4.86618 | 75.33783 | 37907 ft | 507 kts | 252° |
| 2026-05-04 07:45 | 4.84543 | 75.27070 | 37897 ft | 507 kts | 252° |
| 2026-05-04 07:45 | 4.82459 | 75.20324 | 37984 ft | 497 kts | 252° |
| 2026-05-04 07:46 | 4.81446 | 75.17050 | 37719 ft | 487 kts | 252° |
| 2026-05-04 07:46 | 4.80446 | 75.13813 | 37118 ft | 486 kts | 252° |
| 2026-05-04 07:46 | 4.79440 | 75.10563 | 36152 ft | 489 kts | 252° |
| 2026-05-04 07:46 | 4.78433 | 75.07310 | 34860 ft | 490 kts | 253° |
| 2026-05-04 07:47 | 4.77419 | 75.04036 | 33449 ft | 490 kts | 253° |
| 2026-05-04 07:47 | 4.76412 | 75.00779 | 31957 ft | 488 kts | 253° |
| 2026-05-04 07:47 | 4.75419 | 74.97572 | 30556 ft | 484 kts | 253° |
| 2026-05-04 07:49 | 4.68757 | 74.76062 | 20458 ft | 433 kts | 253° |
| 2026-05-04 07:49 | 4.67870 | 74.73199 | 19082 ft | 424 kts | 253° |
| 2026-05-04 07:49 | 4.67005 | 74.70409 | 17687 ft | 415 kts | 253° |
| 2026-05-04 07:50 | 4.66158 | 74.67679 | 16209 ft | 406 kts | 253° |
| 2026-05-04 07:50 | 4.65339 | 74.65039 | 14814 ft | 397 kts | 253° |
| 2026-05-04 07:50 | 4.64526 | 74.62417 | 13429 ft | 390 kts | 253° |
| 2026-05-04 07:50 | 4.63728 | 74.59844 | 11939 ft | 383 kts | 253° |
| 2026-05-04 07:51 | 4.62947 | 74.57325 | 10842 ft | 370 kts | 253° |
| 2026-05-04 07:51 | 4.62217 | 74.54975 | 10563 ft | 336 kts | 253° |
| 2026-05-04 07:51 | 4.61554 | 74.52838 | 10369 ft | 313 kts | 253° |
| 2026-05-04 07:51 | 4.60880 | 74.50663 | 10132 ft | 341 kts | 253° |
| 2026-05-04 07:52 | 4.60152 | 74.48315 | 9872 ft | 363 kts | 253° |
| 2026-05-04 07:52 | 4.59373 | 74.45801 | 9591 ft | 393 kts | 253° |
| 2026-05-04 07:52 | 4.58538 | 74.43113 | 9955 ft | 397 kts | 253° |
| 2026-05-04 07:52 | 4.57704 | 74.40447 | 10356 ft | 415 kts | 252° |
| 2026-05-04 07:53 | 4.56800 | 74.37706 | 10804 ft | 420 kts | 252° |
| 2026-05-04 07:54 | 4.52505 | 74.22070 | 12828 ft | 328 kts | 258° |
| 2026-05-04 07:55 | 4.51979 | 74.19811 | 11954 ft | 334 kts | 257° |
| 2026-05-04 07:55 | 4.51447 | 74.17541 | 11111 ft | 334 kts | 257° |
| 2026-05-04 07:55 | 4.50914 | 74.15278 | 10288 ft | 333 kts | 257° |
| 2026-05-04 07:55 | 4.50382 | 74.13021 | 9455 ft | 332 kts | 257° |
| 2026-05-04 07:56 | 4.49852 | 74.10775 | 8579 ft | 329 kts | 257° |
| 2026-05-04 07:56 | 4.49328 | 74.08556 | 7696 ft | 326 kts | 257° |
| 2026-05-04 07:56 | 4.48810 | 74.06363 | 6784 ft | 325 kts | 257° |
| 2026-05-04 07:56 | 4.48300 | 74.04204 | 6414 ft | 310 kts | 256° |
| 2026-05-04 07:57 | 4.47810 | 74.02126 | 6184 ft | 304 kts | 257° |
| 2026-05-04 07:57 | 4.47325 | 74.00072 | 5942 ft | 302 kts | 257° |
| 2026-05-04 07:57 | 4.46841 | 73.98027 | 5701 ft | 300 kts | 257° |
| 2026-05-04 07:57 | 4.46363 | 73.96001 | 5532 ft | 296 kts | 257° |
| 2026-05-04 07:58 | 4.45893 | 73.94014 | 5470 ft | 289 kts | 257° |
| 2026-05-04 07:58 | 4.45441 | 73.92103 | 5462 ft | 281 kts | 257° |
| 2026-05-04 07:58 | 4.45141 | 73.90831 | 5466 ft | 276 kts | 257° |
| 2026-05-04 07:58 | 4.44608 | 73.88389 | 5462 ft | 267 kts | 262° |
| 2026-05-04 07:59 | 4.44490 | 73.86557 | 5465 ft | 260 kts | 269° |
| 2026-05-04 07:59 | 4.44480 | 73.84762 | 5462 ft | 255 kts | 270° |
| 2026-05-04 07:59 | 4.44484 | 73.83565 | 5455 ft | 252 kts | 270° |
| 2026-05-04 07:59 | 4.44490 | 73.81827 | 5471 ft | 247 kts | 270° |
| 2026-05-04 08:00 | 4.44495 | 73.80140 | 5460 ft | 243 kts | 269° |
| 2026-05-04 08:00 | 4.44497 | 73.78455 | 5463 ft | 240 kts | 270° |
| 2026-05-04 08:00 | 4.44498 | 73.76798 | 5464 ft | 236 kts | 269° |
| 2026-05-04 08:02 | 4.44475 | 73.65576 | 5461 ft | 226 kts | 269° |
| 2026-05-04 08:02 | 4.44473 | 73.63998 | 5453 ft | 226 kts | 269° |
| 2026-05-04 08:02 | 4.44473 | 73.62435 | 5418 ft | 219 kts | 270° |
| 2026-05-04 08:03 | 4.44473 | 73.60939 | 5343 ft | 211 kts | 270° |
| 2026-05-04 08:03 | 4.44474 | 73.59484 | 5177 ft | 206 kts | 270° |
| 2026-05-04 08:03 | 4.44474 | 73.58018 | 4760 ft | 216 kts | 270° |
| 2026-05-04 08:03 | 4.44474 | 73.56480 | 4309 ft | 224 kts | 269° |
| 2026-05-04 08:04 | 4.44287 | 73.54933 | 4026 ft | 223 kts | 251° |
| 2026-05-04 08:04 | 4.43444 | 73.53677 | 3899 ft | 217 kts | 221° |
| 2026-05-04 08:04 | 4.42087 | 73.53089 | 3768 ft | 214 kts | 191° |
| 2026-05-04 08:04 | 4.40640 | 73.53031 | 3652 ft | 209 kts | 182° |
| 2026-05-04 08:05 | 4.39194 | 73.53052 | 3438 ft | 206 kts | 183° |
| 2026-05-04 08:05 | 4.37764 | 73.53060 | 3246 ft | 205 kts | 183° |
| 2026-05-04 08:05 | 4.36335 | 73.53071 | 3006 ft | 205 kts | 183° |
| 2026-05-04 08:05 | 4.34909 | 73.53081 | 2806 ft | 204 kts | 182° |
| 2026-05-04 08:06 | 4.33503 | 73.53090 | 2645 ft | 200 kts | 183° |
| 2026-05-04 08:06 | 4.32106 | 73.53094 | 2393 ft | 202 kts | 184° |
| 2026-05-04 08:06 | 4.30709 | 73.53093 | 2200 ft | 199 kts | 183° |
| 2026-05-04 08:06 | 4.29324 | 73.53092 | 2003 ft | 197 kts | 184° |
| 2026-05-04 08:08 | 4.20718 | 73.53134 | 27 ft | 140 kts | 185° |
| 2026-05-04 08:08 | 4.19869 | 73.53112 | 13 ft | 97 kts | 184° |